Portada
METAR-TAF:

METAR-TAF

Aeroports :

N'Djamena, Txad

latitud: 12-08N, longitud: 015-02E, altitud: 295 m

Observació

L'informe es va fer fa 1 hora i 14 minuts, a les 18:00 UTC
Vent 4 kt del Sud-Oest
Temperatura 30°C
Humitat 75%
Pressió 1009 hPa
Visibilitat: 8000 m

METAR: FTTJ 231800Z 22004KT 8000 NSC 30/25 Q1009 NOSIG

Hora: 20:14 (19:14 UTC)

Pronòstic

L'informe es va fer fa 1 hora i 59 minuts, a les 17:15 UTC
Pronòstic vàlid del 23 a les 18 UTC al 24 a les 24 UTC
Vent 6 kt del Sud/Sud-Oest
Visibilitat: 8000 m
Probabilitat 30% :
Temporalment
l' 23 a les 20 UTC al 24 a les 06 UTC
Vent 10 kt amb direcció variable amb ràfegues de 30 kt
Visibilitat: 4000 m
torb alta de pols, tempesta, pluja
Probabilitat 30% :
Temporalment
l' 24 a les 10 UTC al 24 a les 16 UTC
tempesta, pluja

TAF: FTTJ 231715Z 2318/2424 20006KT 8000 NSC PROB30 TEMPO 2320/2406 VRB10G30KT 4000 BLDU TSRA PROB30 TEMPO 2410/2416 TSRA

Observacions i pronòstics meteorològics de més de 4000 aeroports (METAR i TAF).

Les estacions disponibles són els punts grocs i vermells al mapa.

Posi el ratolí al punt desitjat per veure el nom de l'estació.

Feu clic per veure les observacions i els pronòstics meteorològics.

Per canviar el mapa: feu clic els botons verds amb una creu de color negre per apropar; al botó verd amb un guió per allunyar la imatge; o en les fletxes verdes per a mapes adjacents.


METAR-TAF: